Time;durP1;ratioP1;P1;durP2;ratioP2;P2;SDS_P1;SDS_P2;PMS_P1;PMS_P2;Temp;Humidity;BMP_temperature;BMP_pressure;BME280_temperature;BME280_humidity;BME280_pressure;Samples;Min_cycle;Max_cycle;Signal;HPM_P1;HPM_P2
2022/05/30 00:00:23;;;;;;;;;;;;;;;12.10;100.00;98948.84;5101175;27;19923;-81
2022/05/30 00:02:50;;;;;;;;;;;;;;;11.74;100.00;98952.91;5136005;27;19924;-82
2022/05/30 00:05:19;;;;;;;;;;;;;;;11.55;100.00;98946.09;5118293;27;19974;-82
2022/05/30 00:07:46;;;;;;;;;;;;;;;11.76;100.00;98950.47;5136206;27;20255;-82
2022/05/30 00:10:14;;;;;;;;;;;;;;;12.03;100.00;98949.03;5136323;27;19930;-83
2022/05/30 00:12:41;;;;;;;;;;;;;;;12.21;100.00;98940.97;5100762;27;20283;-83
2022/05/30 00:15:10;;;;;;;;;;;;;;;12.27;100.00;98935.63;5100775;27;19930;-83
2022/05/30 00:17:37;;;;;;;;;;;;;;;12.10;100.00;98929.25;5117396;27;19962;-82
2022/05/30 00:20:06;;;;;;;;;;;;;;;12.18;100.00;98929.84;5118141;27;19927;-82
2022/05/30 00:22:33;;;;;;;;;;;;;;;12.02;100.00;98927.84;5117489;27;20018;-82
2022/05/30 00:25:00;;;;;;;;;;;;;;;11.90;100.00;98927.75;5100613;27;20379;-82
2022/05/30 00:27:28;;;;;;;;;;;;;;;12.04;100.00;98922.59;5117377;27;19938;-82
2022/05/30 00:29:55;;;;;;;;;;;;;;;12.31;100.00;98917.50;5117651;27;20271;-82
2022/05/30 00:32:25;;;;;;;;;;;;;;;12.12;100.00;98912.00;5100941;27;20430;-82
2022/05/30 00:34:52;;;;;;;;;;;;;;;12.42;100.00;98900.44;5100888;27;19930;-82
2022/05/30 00:37:19;;;;;;;;;;;;;;;12.51;100.00;98895.78;5100808;27;19930;-82
2022/05/30 00:39:46;;;;;;;;;;;;;;;12.65;100.00;98895.41;5117359;27;19927;-82
2022/05/30 00:42:15;;;;;;;;;;;;;;;12.52;100.00;98900.19;5100286;27;19927;-82
2022/05/30 00:44:43;;;;;;;;;;;;;;;12.41;100.00;98890.44;5117289;27;19930;-82
2022/05/30 00:47:10;;;;;;;;;;;;;;;12.15;100.00;98889.50;5100260;27;19924;-82
2022/05/30 00:49:39;;;;;;;;;;;;;;;11.37;100.00;98895.34;5117491;27;19923;-82
2022/05/30 00:52:11;;;;;;;;;;;;;;;11.70;100.00;98897.00;5084643;27;19923;-82
2022/05/30 00:54:43;;;;;;;;;;;;;;;11.86;100.00;98894.22;5100279;27;19972;-82
2022/05/30 00:57:20;;;;;;;;;;;;;;;12.28;100.00;98887.56;5083769;27;20004;-82
2022/05/30 00:59:51;;;;;;;;;;;;;;;12.46;100.00;98876.69;5116760;27;19935;-82
2022/05/30 01:02:21;;;;;;;;;;;;;;;12.15;100.00;98874.72;5100208;27;19923;-82
2022/05/30 01:07:36;;;;;;;;;;;;;;;11.52;100.00;98874.22;5135191;27;20321;-81
2022/05/30 01:10:06;;;;;;;;;;;;;;;11.42;100.00;98875.22;5099688;27;19930;-81
2022/05/30 01:12:38;;;;;;;;;;;;;;;10.98;100.00;98869.41;5099636;27;20008;-81
2022/05/30 01:15:07;;;;;;;;;;;;;;;10.80;100.00;98875.34;5082702;28;19923;-81
2022/05/30 01:17:38;;;;;;;;;;;;;;;10.77;100.00;98873.41;5099820;27;19931;-81
2022/05/30 01:20:11;;;;;;;;;;;;;;;10.56;100.00;98873.81;5100364;27;20065;-81
2022/05/30 01:22:43;;;;;;;;;;;;;;;10.68;100.00;98881.56;5116550;28;19976;-81
2022/05/30 01:25:12;;;;;;;;;;;;;;;10.78;100.00;98875.00;5116401;28;20370;-81
2022/05/30 01:28:13;;;;;;;;;;;;;;;10.76;100.00;98866.25;5118961;28;19960;-81
2022/05/30 01:30:43;;;;;;;;;;;;;;;11.04;100.00;98860.09;5116655;28;19924;-81
2022/05/30 01:33:12;;;;;;;;;;;;;;;11.29;100.00;98859.53;5117006;28;19930;-81
2022/05/30 01:35:39;;;;;;;;;;;;;;;10.99;100.00;98844.59;5083286;28;20015;-82
2022/05/30 01:38:11;;;;;;;;;;;;;;;10.99;100.00;98849.41;5099400;28;20423;-81
2022/05/30 01:40:38;;;;;;;;;;;;;;;10.98;100.00;98845.03;5116285;28;19924;-83
2022/05/30 01:43:05;;;;;;;;;;;;;;;10.75;100.00;98848.69;5065794;28;19923;-83
2022/05/30 01:45:35;;;;;;;;;;;;;;;10.81;100.00;98849.75;5100461;28;19924;-80
2022/05/30 01:48:02;;;;;;;;;;;;;;;10.99;100.00;98841.03;5099312;28;19927;-82
2022/05/30 01:50:30;;;;;;;;;;;;;;;11.21;100.00;98842.13;5099708;28;19955;-82
2022/05/30 01:53:06;;;;;;;;;;;;;;;11.24;100.00;98837.72;5099581;28;19923;-82
2022/05/30 01:55:59;;;;;;;;;;;;;;;11.45;100.00;98840.03;5113485;28;19924;-81
2022/05/30 01:58:26;;;;;;;;;;;;;;;11.90;100.00;98833.34;5099275;28;19953;-81
2022/05/30 02:01:20;;;;;;;;;;;;;;;12.09;100.00;98835.25;5116210;28;20282;-81
2022/05/30 02:03:49;;;;;;;;;;;;;;;12.27;100.00;98835.59;5099531;28;20339;-81
2022/05/30 02:06:16;;;;;;;;;;;;;;;12.43;100.00;98827.13;5115719;28;19923;-81
2022/05/30 02:08:43;;;;;;;;;;;;;;;11.96;100.00;98825.22;5116056;28;19923;-81
2022/05/30 02:11:10;;;;;;;;;;;;;;;11.95;100.00;98830.00;5066428;27;19924;-81
2022/05/30 02:13:38;;;;;;;;;;;;;;;11.74;100.00;98824.94;5103185;27;19927;-81
2022/05/30 02:19:16;;;;;;;;;;;;;;;11.60;100.00;98816.84;5103387;27;19930;-81
2022/05/30 02:21:45;;;;;;;;;;;;;;;11.71;100.00;98809.03;5103168;27;19924;-81
2022/05/30 02:24:13;;;;;;;;;;;;;;;11.88;100.00;98802.19;5120045;27;19930;-81
2022/05/30 02:26:41;;;;;;;;;;;;;;;11.53;100.00;98802.25;5102735;27;19923;-81
2022/05/30 02:29:11;;;;;;;;;;;;;;;11.68;100.00;98798.69;5120300;27;19938;-81
2022/05/30 02:31:51;;;;;;;;;;;;;;;11.89;100.00;98781.38;5086058;27;20015;-81
2022/05/30 02:37:04;;;;;;;;;;;;;;;11.24;100.00;98788.13;5119635;27;19923;-81
2022/05/30 02:39:32;;;;;;;;;;;;;;;11.01;100.00;98791.06;5119634;27;19959;-81
2022/05/30 02:42:19;;;;;;;;;;;;;;;10.96;100.00;98786.75;5137609;27;20270;-81
2022/05/30 02:44:48;;;;;;;;;;;;;;;11.20;100.00;98781.84;5102837;27;19923;-81
2022/05/30 02:47:17;;;;;;;;;;;;;;;11.60;100.00;98780.47;5119431;27;19927;-80
2022/05/30 02:49:52;;;;;;;;;;;;;;;11.64;100.00;98775.63;5102219;27;20268;-81
2022/05/30 02:52:19;;;;;;;;;;;;;;;11.90;100.00;98777.38;5102903;27;20266;-81
2022/05/30 02:54:46;;;;;;;;;;;;;;;11.76;100.00;98772.13;5102589;27;19924;-80
2022/05/30 02:57:20;;;;;;;;;;;;;;;11.84;100.00;98765.13;5103282;27;20005;-81
2022/05/30 02:59:47;;;;;;;;;;;;;;;11.63;100.00;98764.88;5119292;27;19923;-81
2022/05/30 03:02:14;;;;;;;;;;;;;;;11.55;100.00;98755.84;5119298;27;19927;-81
2022/05/30 03:04:42;;;;;;;;;;;;;;;11.88;100.00;98757.41;5118847;27;19929;-81
2022/05/30 03:07:09;;;;;;;;;;;;;;;11.85;100.00;98761.09;5119611;27;20286;-81
2022/05/30 03:09:36;;;;;;;;;;;;;;;11.93;100.00;98764.50;5102146;27;19930;-81
2022/05/30 03:12:23;;;;;;;;;;;;;;;11.64;100.00;98750.44;5119028;27;19923;-81
2022/05/30 03:14:51;;;;;;;;;;;;;;;11.56;100.00;98751.81;5119119;27;19930;-80
2022/05/30 03:17:19;;;;;;;;;;;;;;;11.80;100.00;98763.63;5119225;27;19930;-80
2022/05/30 03:19:52;;;;;;;;;;;;;;;11.83;100.00;98766.31;5102002;27;20301;-80
2022/05/30 03:22:21;;;;;;;;;;;;;;;11.97;100.00;98749.16;5118927;27;20354;-81
2022/05/30 03:25:06;;;;;;;;;;;;;;;11.44;100.00;98749.69;5136966;27;19948;-81
2022/05/30 03:27:34;;;;;;;;;;;;;;;11.45;100.00;98754.06;5118839;27;20018;-80
2022/05/30 03:30:03;;;;;;;;;;;;;;;11.39;100.00;98755.81;5101709;27;19929;-80
2022/05/30 03:32:30;;;;;;;;;;;;;;;11.46;100.00;98752.84;5102306;27;19966;-81
2022/05/30 03:34:58;;;;;;;;;;;;;;;11.59;100.00;98750.13;5118755;27;19934;-80
2022/05/30 03:37:29;;;;;;;;;;;;;;;11.81;100.00;98743.59;5119031;27;20374;-80
2022/05/30 03:40:12;;;;;;;;;;;;;;;11.40;100.00;98743.41;5118381;27;20027;-80
2022/05/30 03:42:59;;;;;;;;;;;;;;;11.04;100.00;98745.47;5136868;27;20324;-80
2022/05/30 03:45:27;;;;;;;;;;;;;;;10.89;100.00;98742.19;5118317;27;20362;-80
2022/05/30 03:47:54;;;;;;;;;;;;;;;10.81;100.00;98743.56;5118058;27;20297;-80
2022/05/30 03:50:24;;;;;;;;;;;;;;;11.21;100.00;98729.50;5068639;27;20404;-80
2022/05/30 03:52:53;;;;;;;;;;;;;;;11.64;100.00;98725.25;5118128;27;19928;-80
2022/05/30 03:55:22;;;;;;;;;;;;;;;11.81;100.00;98726.00;5118349;27;20366;-80
2022/05/30 03:57:51;;;;;;;;;;;;;;;11.79;100.00;98726.47;5101140;27;19980;-80
2022/05/30 04:00:20;;;;;;;;;;;;;;;11.81;100.00;98718.41;5084654;27;20370;-80
2022/05/30 04:02:53;;;;;;;;;;;;;;;11.76;100.00;98710.53;5101125;27;19955;-80
2022/05/30 04:05:20;;;;;;;;;;;;;;;11.68;100.00;98709.16;5136626;27;19945;-81
2022/05/30 04:07:47;;;;;;;;;;;;;;;12.03;100.00;98708.19;5117816;27;19923;-80
2022/05/30 04:10:40;;;;;;;;;;;;;;;12.16;100.00;98709.03;5112761;27;19923;-80
2022/05/30 04:13:43;;;;;;;;;;;;;;;12.01;100.00;98707.09;5019254;28;19925;-81
2022/05/30 04:16:29;;;;;;;;;;;;;;;11.91;100.00;98703.34;5036000;28;20019;-80
2022/05/30 04:19:01;;;;;;;;;;;;;;;12.10;100.00;98705.19;5003855;28;19931;-80
2022/05/30 04:21:28;;;;;;;;;;;;;;;12.28;100.00;98697.09;5019069;28;19960;-80
2022/05/30 04:23:56;;;;;;;;;;;;;;;11.80;100.00;98700.03;5052603;28;19924;-81
2022/05/30 04:26:24;;;;;;;;;;;;;;;11.62;100.00;98702.50;5003263;28;20019;-80
2022/05/30 04:28:52;;;;;;;;;;;;;;;11.83;100.00;98693.56;5035934;28;19925;-80
2022/05/30 04:31:46;;;;;;;;;;;;;;;11.82;100.00;98686.38;5035976;28;19931;-81
2022/05/30 04:34:13;;;;;;;;;;;;;;;12.24;100.00;98681.59;5035316;28;20381;-80
2022/05/30 04:36:41;;;;;;;;;;;;;;;12.29;100.00;98676.25;5002996;28;20043;-80
2022/05/30 04:39:08;;;;;;;;;;;;;;;11.99;100.00;98678.72;5035880;28;20046;-80
2022/05/30 04:41:35;;;;;;;;;;;;;;;12.08;100.00;98676.88;5052317;28;19931;-80
2022/05/30 04:44:22;;;;;;;;;;;;;;;11.18;100.00;98671.66;5031949;28;19932;-81
2022/05/30 04:47:05;;;;;;;;;;;;;;;11.95;100.00;98670.41;5053327;27;19934;-80
2022/05/30 04:49:36;;;;;;;;;;;;;;;12.24;100.00;98668.41;5117397;27;19928;-81
2022/05/30 04:52:04;;;;;;;;;;;;;;;12.35;100.00;98666.09;5100298;27;19923;-80
2022/05/30 04:54:33;;;;;;;;;;;;;;;12.37;100.00;98660.03;5100306;27;19923;-81
2022/05/30 04:57:00;;;;;;;;;;;;;;;12.31;100.00;98661.81;5135247;27;20362;-81
2022/05/30 04:59:32;;;;;;;;;;;;;;;12.31;100.00;98662.56;5116914;27;19923;-80
2022/05/30 05:02:02;;;;;;;;;;;;;;;12.33;100.00;98664.94;5117173;27;19930;-81
2022/05/30 05:04:30;;;;;;;;;;;;;;;11.47;100.00;98659.31;5117065;27;20010;-81
2022/05/30 05:06:58;;;;;;;;;;;;;;;11.07;100.00;98657.94;5099959;27;19923;-80
2022/05/30 05:09:34;;;;;;;;;;;;;;;11.36;100.00;98663.63;5083001;28;20309;-80
2022/05/30 05:12:27;;;;;;;;;;;;;;;11.44;100.00;98654.59;5103323;27;19976;-81
2022/05/30 05:15:13;;;;;;;;;;;;;;;11.54;100.00;98661.91;5116829;27;19924;-80
2022/05/30 05:17:59;;;;;;;;;;;;;;;11.61;100.00;98653.34;5120338;27;19927;-80
2022/05/30 05:20:26;;;;;;;;;;;;;;;11.65;100.00;98656.84;5099170;27;19931;-81
2022/05/30 05:22:53;;;;;;;;;;;;;;;11.59;100.00;98650.19;5135072;27;19942;-81
2022/05/30 05:25:41;;;;;;;;;;;;;;;11.35;100.00;98651.63;5134982;28;20059;-81
2022/05/30 05:28:28;;;;;;;;;;;;;;;11.43;100.00;98655.81;5103279;28;19984;-81
2022/05/30 05:30:57;;;;;;;;;;;;;;;11.80;100.00;98649.66;5116543;28;20064;-80
2022/05/30 05:33:24;;;;;;;;;;;;;;;11.73;100.00;98655.44;5100232;28;19959;-80
2022/05/30 05:35:51;;;;;;;;;;;;;;;11.77;100.00;98660.97;5099883;28;19930;-80
2022/05/30 05:38:18;;;;;;;;;;;;;;;12.05;100.00;98655.34;5116729;28;20010;-80
2022/05/30 05:41:12;;;;;;;;;;;;;;;12.06;100.00;98662.53;5131740;28;19968;-79
2022/05/30 05:43:56;;;;;;;;;;;;;;;11.86;100.00;98659.06;5116505;28;20057;-79
2022/05/30 05:46:24;;;;;;;;;;;;;;;12.02;100.00;98655.44;5101066;27;19981;-79
2022/05/30 05:48:52;;;;;;;;;;;;;;;11.84;100.00;98655.94;5120344;27;19923;-80
2022/05/30 05:51:20;;;;;;;;;;;;;;;12.05;100.00;98651.75;5103669;27;20010;-80
2022/05/30 05:53:48;;;;;;;;;;;;;;;12.16;100.00;98661.41;5120525;27;20344;-79
2022/05/30 05:56:17;;;;;;;;;;;;;;;12.39;100.00;98652.75;5120314;27;20014;-79
2022/05/30 05:58:44;;;;;;;;;;;;;;;12.45;100.00;98655.78;5120310;27;19930;-79
2022/05/30 06:01:16;;;;;;;;;;;;;;;12.71;100.00;98655.38;5120211;27;19923;-79
2022/05/30 06:03:43;;;;;;;;;;;;;;;12.68;100.00;98647.06;5138295;27;19924;-79
2022/05/30 06:06:29;;;;;;;;;;;;;;;12.90;100.00;98650.00;5138459;27;20026;-79
2022/05/30 06:09:01;;;;;;;;;;;;;;;12.53;100.00;98651.53;5103153;27;19972;-79
2022/05/30 06:11:47;;;;;;;;;;;;;;;12.48;100.00;98655.66;5138492;27;19923;-79
2022/05/30 06:14:14;;;;;;;;;;;;;;;12.63;100.00;98651.22;5103199;27;19923;-79
2022/05/30 06:16:42;;;;;;;;;;;;;;;12.56;100.00;98651.44;5119919;27;19923;-79
2022/05/30 06:19:16;;;;;;;;;;;;;;;12.57;100.00;98641.03;5119910;27;19930;-79
2022/05/30 06:21:43;;;;;;;;;;;;;;;12.81;100.00;98642.25;5119803;27;19992;-79
2022/05/30 06:24:13;;;;;;;;;;;;;;;12.96;100.00;98648.19;5119811;27;19923;-79
2022/05/30 06:26:40;;;;;;;;;;;;;;;12.90;100.00;98645.19;5119800;27;19934;-79
2022/05/30 06:29:15;;;;;;;;;;;;;;;13.24;100.00;98644.50;5119744;27;19928;-79
2022/05/30 06:31:43;;;;;;;;;;;;;;;12.99;100.00;98633.28;5119789;27;20003;-79
2022/05/30 06:34:10;;;;;;;;;;;;;;;13.06;100.00;98638.66;5119550;27;19928;-79
2022/05/30 06:36:42;;;;;;;;;;;;;;;12.63;100.00;98631.59;5119676;27;19968;-79
2022/05/30 06:39:10;;;;;;;;;;;;;;;12.89;100.00;98628.81;5137981;27;19931;-79
2022/05/30 06:41:44;;;;;;;;;;;;;;;12.99;100.00;98627.66;5103948;27;19927;-79
2022/05/30 06:44:12;;;;;;;;;;;;;;;13.21;100.00;98634.19;5102279;27;19923;-79
2022/05/30 06:46:58;;;;;;;;;;;;;;;13.29;100.00;98616.66;5118998;27;19924;-79
2022/05/30 06:49:44;;;;;;;;;;;;;;;13.00;100.00;98623.66;5137705;27;19924;-79
2022/05/30 06:52:14;;;;;;;;;;;;;;;13.42;100.00;98616.63;5102855;27;19931;-79
2022/05/30 06:54:41;;;;;;;;;;;;;;;13.73;100.00;98620.34;5137757;27;19931;-79
2022/05/30 06:59:55;;;;;;;;;;;;;;;13.77;100.00;98604.13;5119366;27;19980;-78
2022/05/30 07:02:23;;;;;;;;;;;;;;;13.62;100.00;98606.69;5119084;27;20019;-77
2022/05/30 07:05:09;;;;;;;;;;;;;;;13.45;100.00;98610.88;5137423;27;20009;-79
2022/05/30 07:07:56;;;;;;;;;;;;;;;13.27;100.00;98607.91;5119072;27;19931;-79
2022/05/30 07:10:37;;;;;;;;;;;;;;;13.66;100.00;98609.38;5118935;27;19924;-78
2022/05/30 07:13:12;;;;;;;;;;;;;;;12.90;100.00;98608.72;5119107;27;19923;-78
2022/05/30 07:15:41;;;;;;;;;;;;;;;13.08;100.00;98603.34;5101832;27;19932;-78
2022/05/30 07:18:13;;;;;;;;;;;;;;;13.18;100.00;98599.41;5102385;27;19983;-78
2022/05/30 07:20:41;;;;;;;;;;;;;;;13.43;100.00;98601.34;5118919;27;20353;-78
2022/05/30 07:23:28;;;;;;;;;;;;;;;13.47;100.00;98596.41;5137148;27;19930;-78
2022/05/30 07:26:16;;;;;;;;;;;;;;;13.68;100.00;98604.06;5136602;27;19930;-78
2022/05/30 07:29:08;;;;;;;;;;;;;;;13.92;100.00;98593.97;5033328;28;19932;-78
2022/05/30 07:31:59;;;;;;;;;;;;;;;13.17;100.00;98591.44;5033246;28;19936;-78
2022/05/30 07:34:45;;;;;;;;;;;;;;;13.31;100.00;98593.75;5033407;28;19925;-78
2022/05/30 07:37:49;;;;;;;;;;;;;;;13.01;100.00;98597.19;5033251;28;19932;-79
2022/05/30 07:40:29;;;;;;;;;;;;;;;12.83;100.00;98592.13;5002352;28;19936;-79
2022/05/30 07:43:29;;;;;;;;;;;;;;;12.87;100.00;98595.59;5004767;28;20380;-79
2022/05/30 07:46:35;;;;;;;;;;;;;;;13.13;100.00;98593.59;4982922;28;20020;-85
2022/05/30 07:49:19;;;;;;;;;;;;;;;12.63;100.00;98600.75;4961817;28;19969;-80
2022/05/30 07:52:21;;;;;;;;;;;;;;;13.00;100.00;98604.03;4968454;28;19936;-86
2022/05/30 07:55:08;;;;;;;;;;;;;;;12.65;100.00;98603.09;4971675;28;20021;-84
2022/05/30 07:57:52;;;;;;;;;;;;;;;12.43;100.00;98602.22;4938709;28;19966;-83
2022/05/30 08:00:25;;;;;;;;;;;;;;;12.26;100.00;98595.91;4955229;28;19926;-82
2022/05/30 08:03:00;;;;;;;;;;;;;;;12.41;100.00;98608.25;4939468;28;19937;-81
2022/05/30 08:05:30;;;;;;;;;;;;;;;12.55;100.00;98598.63;4958510;28;19925;-81
2022/05/30 08:08:16;;;;;;;;;;;;;;;12.72;100.00;98600.88;4989627;28;20058;-81
2022/05/30 08:10:51;;;;;;;;;;;;;;;12.10;100.00;98600.81;4977497;28;20493;-82
2022/05/30 08:13:19;;;;;;;;;;;;;;;12.25;100.00;98602.72;4996780;28;19987;-81
2022/05/30 08:15:50;;;;;;;;;;;;;;;12.13;100.00;98608.34;5013243;28;19960;-80
2022/05/30 08:18:23;;;;;;;;;;;;;;;11.95;100.00;98600.44;5085785;28;19946;-82
2022/05/30 08:20:55;;;;;;;;;;;;;;;11.66;100.00;98596.84;5094436;28;19924;-82
2022/05/30 08:23:23;;;;;;;;;;;;;;;11.98;100.00;98599.53;5077414;28;19924;-80
2022/05/30 08:25:53;;;;;;;;;;;;;;;11.96;100.00;98602.03;5091120;28;20302;-81
2022/05/30 08:28:23;;;;;;;;;;;;;;;12.02;100.00;98603.03;5090300;28;19924;-81
2022/05/30 08:30:51;;;;;;;;;;;;;;;12.16;100.00;98594.19;5091145;28;20375;-80
2022/05/30 08:33:53;;;;;;;;;;;;;;;12.25;100.00;98594.31;5075339;28;20375;-81
2022/05/30 08:36:28;;;;;;;;;;;;;;;12.33;100.00;98592.91;5073712;28;19924;-81
2022/05/30 08:41:46;;;;;;;;;;;;;;;11.95;100.00;98586.44;5090538;28;20395;-82
2022/05/30 08:41:47;;;;;;;;;;;;;;;12.13;100.00;98595.09;5090880;28;20299;-81
2022/05/30 08:44:46;;;;;;;;;;;;;;;12.27;100.00;98589.06;5076544;28;19924;-80
2022/05/30 08:47:45;;;;;;;;;;;;;;;12.26;100.00;98586.72;5090769;28;20000;-82
2022/05/30 08:50:21;;;;;;;;;;;;;;;12.00;100.00;98593.50;5090591;28;19924;-82
2022/05/30 08:53:01;;;;;;;;;;;;;;;12.05;100.00;98598.56;5076146;28;20301;-83
2022/05/30 08:55:54;;;;;;;;;;;;;;;12.29;100.00;98597.03;5093322;28;19925;-83
2022/05/30 08:59:04;;;;;;;;;;;;;;;12.04;100.00;98594.97;5079567;28;19997;-79
2022/05/30 09:01:32;;;;;;;;;;;;;;;11.93;100.00;98597.31;5059535;28;20022;-77
2022/05/30 09:04:38;;;;;;;;;;;;;;;12.58;100.00;98586.53;5086037;28;19973;-82
2022/05/30 09:07:08;;;;;;;;;;;;;;;12.69;100.00;98589.78;5092739;28;19924;-81
2022/05/30 09:09:42;;;;;;;;;;;;;;;12.58;100.00;98587.31;5093483;28;19931;-81
2022/05/30 09:12:30;;;;;;;;;;;;;;;12.95;100.00;98594.13;5092330;28;19924;-80
2022/05/30 09:15:17;;;;;;;;;;;;;;;13.16;100.00;98582.22;5079317;28;19932;-81
2022/05/30 09:17:47;;;;;;;;;;;;;;;13.12;100.00;98575.16;5076316;28;20444;-81
2022/05/30 09:20:16;;;;;;;;;;;;;;;12.73;100.00;98571.63;5059557;28;19931;-78
2022/05/30 09:22:44;;;;;;;;;;;;;;;12.86;100.00;98573.63;5092908;28;19924;-78
2022/05/30 09:28:44;;;;;;;;;;;;;;;12.77;100.00;98572.28;5085603;28;20065;-82
2022/05/30 09:31:47;;;;;;;;;;;;;;;13.25;100.00;98559.09;5051348;28;19925;-79
2022/05/30 09:34:32;;;;;;;;;;;;;;;13.96;100.00;98555.31;5034782;28;19932;-79
2022/05/30 09:37:29;;;;;;;;;;;;;;;13.96;100.00;98555.31;5069584;28;19956;-79
2022/05/30 09:40:09;;;;;;;;;;;;;;;14.02;100.00;98553.47;5054788;28;19931;-79
2022/05/30 09:42:55;;;;;;;;;;;;;;;13.58;100.00;98554.72;5038925;28;19932;-79
2022/05/30 09:45:28;;;;;;;;;;;;;;;13.42;100.00;98544.44;5071023;28;19925;-79
2022/05/30 09:48:12;;;;;;;;;;;;;;;13.51;100.00;98547.31;5071315;28;20299;-79
2022/05/30 09:50:53;;;;;;;;;;;;;;;14.00;100.00;98541.91;5071318;28;19925;-79
2022/05/30 09:53:38;;;;;;;;;;;;;;;14.33;100.00;98545.88;5071249;28;19931;-79
2022/05/30 09:56:05;;;;;;;;;;;;;;;15.00;100.00;98527.06;5071002;28;19959;-79
2022/05/30 09:58:42;;;;;;;;;;;;;;;14.70;100.00;98532.75;5054525;28;19924;-79
2022/05/30 10:01:33;;;;;;;;;;;;;;;14.30;100.00;98529.94;5054563;28;19929;-79
2022/05/30 10:04:13;;;;;;;;;;;;;;;14.66;100.00;98530.06;5054383;28;19929;-79
2022/05/30 10:07:03;;;;;;;;;;;;;;;14.51;100.00;98529.09;5070646;28;19924;-79
2022/05/30 10:09:50;;;;;;;;;;;;;;;14.66;100.00;98518.06;5075246;28;19925;-79
2022/05/30 10:12:27;;;;;;;;;;;;;;;14.98;100.00;98523.91;5075798;28;19924;-79
2022/05/30 10:14:54;;;;;;;;;;;;;;;14.55;100.00;98512.88;5092524;28;19924;-79
2022/05/30 10:17:31;;;;;;;;;;;;;;;14.83;100.00;98522.94;5075494;28;19931;-79
2022/05/30 10:20:07;;;;;;;;;;;;;;;15.26;100.00;98517.09;5092508;28;19928;-82
2022/05/30 10:29:55;;;;;;;;;;;;;;;16.32;100.00;98498.97;5032393;28;19937;-81
2022/05/30 10:32:53;;;;;;;;;;;;;;;16.08;100.00;98498.13;5032756;28;19932;-81
2022/05/30 10:35:20;;;;;;;;;;;;;;;15.74;100.00;98512.56;5018488;28;19925;-81
2022/05/30 10:37:57;;;;;;;;;;;;;;;15.34;100.00;98517.56;5034747;28;19925;-81
2022/05/30 10:40:44;;;;;;;;;;;;;;;15.80;100.00;98505.03;5034689;28;19925;-81
2022/05/30 10:43:37;;;;;;;;;;;;;;;16.05;100.00;98499.06;5034702;28;19991;-79
2022/05/30 10:46:07;;;;;;;;;;;;;;;16.37;100.00;98501.16;4995904;28;20320;-79
2022/05/30 10:48:35;;;;;;;;;;;;;;;16.15;100.00;98495.75;5017688;28;19925;-79
2022/05/30 10:51:06;;;;;;;;;;;;;;;15.48;100.00;98506.47;5010094;28;20286;-79
2022/05/30 10:53:49;;;;;;;;;;;;;;;15.87;100.00;98501.91;5028022;28;19925;-79
2022/05/30 10:56:50;;;;;;;;;;;;;;;16.17;100.00;98498.09;5006133;28;19925;-79
2022/05/30 10:59:27;;;;;;;;;;;;;;;15.52;100.00;98487.41;5072425;28;20498;-79
2022/05/30 11:02:19;;;;;;;;;;;;;;;16.23;100.00;98499.78;5081183;28;19924;-79
2022/05/30 11:04:58;;;;;;;;;;;;;;;15.85;100.00;98493.94;4995015;28;19925;-79
2022/05/30 11:07:44;;;;;;;;;;;;;;;15.21;100.00;98491.59;5027947;28;19933;-78
2022/05/30 11:10:21;;;;;;;;;;;;;;;15.73;100.00;98489.28;5027828;28;19929;-79
2022/05/30 11:12:57;;;;;;;;;;;;;;;16.06;100.00;98494.97;5028007;28;19925;-79
2022/05/30 11:15:30;;;;;;;;;;;;;;;16.25;100.00;98497.25;5027818;28;19925;-80
2022/05/30 11:18:44;;;;;;;;;;;;;;;16.50;100.00;98489.69;4968696;28;19934;-81
2022/05/30 11:21:34;;;;;;;;;;;;;;;15.97;100.00;98497.81;4963652;28;20013;-80
2022/05/30 11:24:03;;;;;;;;;;;;;;;15.77;100.00;98495.50;4969817;28;20029;-81
2022/05/30 11:26:48;;;;;;;;;;;;;;;15.16;100.00;98500.66;4952655;28;19937;-81
2022/05/30 11:29:30;;;;;;;;;;;;;;;14.45;100.00;98500.00;4969657;28;20168;-80
2022/05/30 11:31:57;;;;;;;;;;;;;;;14.65;100.00;98511.66;4969750;28;19926;-80
2022/05/30 11:34:27;;;;;;;;;;;;;;;14.52;100.00;98513.00;4952907;28;19930;-80
2022/05/30 11:36:58;;;;;;;;;;;;;;;14.28;100.00;98524.75;4952820;28;19927;-80
2022/05/30 11:39:28;;;;;;;;;;;;;;;14.09;100.00;98525.91;4969236;28;19933;-80
2022/05/30 11:41:59;;;;;;;;;;;;;;;13.56;100.00;98531.91;5001326;28;19925;-80
2022/05/30 11:44:45;;;;;;;;;;;;;;;13.55;100.00;98530.38;5014591;28;20389;-80
2022/05/30 11:47:29;;;;;;;;;;;;;;;13.49;100.00;98538.59;5015634;28;19929;-81
2022/05/30 11:49:56;;;;;;;;;;;;;;;12.75;100.00;98535.50;4999536;28;19925;-80
2022/05/30 11:52:41;;;;;;;;;;;;;;;12.89;100.00;98550.28;4983111;28;19925;-81
2022/05/30 11:55:10;;;;;;;;;;;;;;;12.80;100.00;98553.78;5076755;28;19923;-80
2022/05/30 11:57:43;;;;;;;;;;;;;;;13.22;100.00;98545.97;5114884;28;20010;-79
2022/05/30 12:00:25;;;;;;;;;;;;;;;13.11;100.00;98551.16;5113646;28;19977;-78
2022/05/30 12:02:58;;;;;;;;;;;;;;;13.58;100.00;98551.91;5096762;28;19954;-78
2022/05/30 12:05:25;;;;;;;;;;;;;;;13.35;100.00;98543.91;5114771;28;19924;-78
2022/05/30 12:07:56;;;;;;;;;;;;;;;14.14;100.00;98539.34;5113249;28;19931;-78
2022/05/30 12:10:39;;;;;;;;;;;;;;;14.25;100.00;98539.75;5114622;28;20014;-80
2022/05/30 12:13:32;;;;;;;;;;;;;;;14.40;100.00;98542.78;5096465;28;19947;-80
2022/05/30 12:16:11;;;;;;;;;;;;;;;15.08;100.00;98522.69;5083369;28;20332;-79
2022/05/30 12:24:19;;;;;;;;;;;;;;;15.84;100.00;98509.25;5110277;28;19931;-81
2022/05/30 12:26:46;;;;;;;;;;;;;;;15.06;100.00;98502.69;5109561;28;19928;-81
2022/05/30 12:29:31;;;;;;;;;;;;;;;15.66;100.00;98500.84;5107424;28;19927;-80
2022/05/30 12:32:17;;;;;;;;;;;;;;;15.76;100.00;98499.59;5108160;28;19924;-80
2022/05/30 12:37:38;;;;;;;;;;;;;;;15.34;100.00;98484.56;5109039;28;20324;-80
2022/05/30 12:40:09;;;;;;;;;;;;;;;14.99;100.00;98482.50;5108988;28;19924;-82
2022/05/30 12:42:42;;;;;;;;;;;;;;;14.29;100.00;98495.44;5075261;28;20119;-81
2022/05/30 12:45:16;;;;;;;;;;;;;;;13.86;100.00;98500.31;5074197;28;20403;-82
2022/05/30 12:47:54;;;;;;;;;;;;;;;13.74;100.00;98509.59;5109066;28;20018;-81
2022/05/30 12:50:30;;;;;;;;;;;;;;;13.20;100.00;98509.19;5107617;28;19923;-82
2022/05/30 12:52:58;;;;;;;;;;;;;;;13.25;100.00;98505.81;5109164;28;19924;-82
2022/05/30 12:55:33;;;;;;;;;;;;;;;13.16;100.00;98509.28;5109306;28;19931;-82
2022/05/30 12:58:00;;;;;;;;;;;;;;;13.44;100.00;98507.50;5108726;28;19946;-81
2022/05/30 13:00:40;;;;;;;;;;;;;;;14.41;100.00;98497.38;5107586;28;19931;-80
2022/05/30 13:03:26;;;;;;;;;;;;;;;14.18;100.00;98497.06;5108044;28;20192;-83
2022/05/30 13:06:12;;;;;;;;;;;;;;;14.32;100.00;98488.09;5091551;28;20405;-83
2022/05/30 13:08:58;;;;;;;;;;;;;;;13.87;100.00;98490.66;5107863;28;20045;-84
2022/05/30 13:11:44;;;;;;;;;;;;;;;13.95;100.00;98491.97;5091799;28;20022;-84
2022/05/30 13:14:26;;;;;;;;;;;;;;;14.14;100.00;98500.03;5093547;28;19924;-83
2022/05/30 13:16:58;;;;;;;;;;;;;;;13.82;100.00;98499.69;5094782;28;20383;-84
2022/05/30 13:19:25;;;;;;;;;;;;;;;14.02;100.00;98503.72;5078339;28;19924;-83
2022/05/30 13:21:54;;;;;;;;;;;;;;;13.91;100.00;98494.09;5112279;28;19950;-84
2022/05/30 13:24:25;;;;;;;;;;;;;;;13.82;100.00;98500.47;5113194;28;20382;-85
2022/05/30 13:26:53;;;;;;;;;;;;;;;14.11;100.00;98505.78;5115757;28;20310;-82
2022/05/30 13:29:26;;;;;;;;;;;;;;;13.95;100.00;98486.34;5098708;28;19931;-83
2022/05/30 13:31:55;;;;;;;;;;;;;;;13.92;100.00;98498.47;5116173;28;19931;-84
2022/05/30 13:34:25;;;;;;;;;;;;;;;14.02;100.00;98491.69;5115719;28;20382;-84
2022/05/30 13:36:54;;;;;;;;;;;;;;;14.46;100.00;98502.34;5116039;28;19933;-83
2022/05/30 13:39:23;;;;;;;;;;;;;;;14.48;100.00;98490.66;5065263;28;20371;-83
2022/05/30 13:41:50;;;;;;;;;;;;;;;14.16;100.00;98491.13;5098747;28;20006;-83
2022/05/30 13:44:20;;;;;;;;;;;;;;;14.72;100.00;98494.50;5115392;28;19930;-83
2022/05/30 13:46:49;;;;;;;;;;;;;;;14.08;100.00;98489.84;5115380;28;19963;-84